sensor_id;sensor_type;location;lat;lon;timestamp;P1;durP1;ratioP1;P2;durP2;ratioP2
65035;SDS011;51603;49.300;8.880;2023-05-10T00:00:27;1.83;;;1.73;;
65035;SDS011;51603;49.300;8.880;2023-05-10T00:02:52;1.77;;;1.67;;
65035;SDS011;51603;49.300;8.880;2023-05-10T00:05:18;1.33;;;1.23;;
65035;SDS011;51603;49.300;8.880;2023-05-10T00:07:43;1.87;;;1.60;;
65035;SDS011;51603;49.300;8.880;2023-05-10T00:10:10;2.67;;;1.60;;
65035;SDS011;51603;49.300;8.880;2023-05-10T00:12:36;1.93;;;1.83;;
65035;SDS011;51603;49.300;8.880;2023-05-10T00:15:01;1.60;;;1.50;;
65035;SDS011;51603;49.300;8.880;2023-05-10T00:17:27;2.13;;;1.40;;
65035;SDS011;51603;49.300;8.880;2023-05-10T00:19:53;1.73;;;1.63;;
65035;SDS011;51603;49.300;8.880;2023-05-10T00:22:19;2.80;;;1.60;;
65035;SDS011;51603;49.300;8.880;2023-05-10T00:24:45;2.10;;;1.90;;
65035;SDS011;51603;49.300;8.880;2023-05-10T00:27:11;1.73;;;1.63;;
65035;SDS011;51603;49.300;8.880;2023-05-10T00:29:36;2.70;;;1.50;;
65035;SDS011;51603;49.300;8.880;2023-05-10T00:32:02;3.13;;;1.80;;
65035;SDS011;51603;49.300;8.880;2023-05-10T00:34:28;2.37;;;1.40;;
65035;SDS011;51603;49.300;8.880;2023-05-10T00:36:53;1.37;;;1.27;;
65035;SDS011;51603;49.300;8.880;2023-05-10T00:39:19;1.97;;;1.50;;
65035;SDS011;51603;49.300;8.880;2023-05-10T00:41:45;1.70;;;1.40;;
65035;SDS011;51603;49.300;8.880;2023-05-10T00:44:10;3.40;;;1.90;;
65035;SDS011;51603;49.300;8.880;2023-05-10T00:46:36;2.43;;;1.40;;
65035;SDS011;51603;49.300;8.880;2023-05-10T00:49:02;2.20;;;1.40;;
65035;SDS011;51603;49.300;8.880;2023-05-10T00:51:27;2.80;;;2.57;;
65035;SDS011;51603;49.300;8.880;2023-05-10T00:53:53;2.00;;;1.90;;
65035;SDS011;51603;49.300;8.880;2023-05-10T00:56:20;2.13;;;1.93;;
65035;SDS011;51603;49.300;8.880;2023-05-10T00:58:48;2.07;;;1.97;;
65035;SDS011;51603;49.300;8.880;2023-05-10T01:01:13;1.83;;;1.73;;
65035;SDS011;51603;49.300;8.880;2023-05-10T01:03:39;1.80;;;1.70;;
65035;SDS011;51603;49.300;8.880;2023-05-10T01:06:05;3.20;;;2.10;;
65035;SDS011;51603;49.300;8.880;2023-05-10T01:08:31;2.27;;;1.70;;
65035;SDS011;51603;49.300;8.880;2023-05-10T01:10:57;1.87;;;1.77;;
65035;SDS011;51603;49.300;8.880;2023-05-10T01:13:30;3.87;;;2.60;;
65035;SDS011;51603;49.300;8.880;2023-05-10T01:15:58;2.30;;;2.20;;
65035;SDS011;51603;49.300;8.880;2023-05-10T01:18:27;2.40;;;2.20;;
65035;SDS011;51603;49.300;8.880;2023-05-10T01:20:58;2.70;;;2.30;;
65035;SDS011;51603;49.300;8.880;2023-05-10T01:29:06;2.43;;;2.23;;
65035;SDS011;51603;49.300;8.880;2023-05-10T01:32:02;2.20;;;2.07;;
65035;SDS011;51603;49.300;8.880;2023-05-10T01:34:35;2.47;;;2.10;;
65035;SDS011;51603;49.300;8.880;2023-05-10T01:37:20;2.00;;;1.90;;
65035;SDS011;51603;49.300;8.880;2023-05-10T01:39:55;2.13;;;1.93;;
65035;SDS011;51603;49.300;8.880;2023-05-10T01:42:28;2.53;;;2.30;;
65035;SDS011;51603;49.300;8.880;2023-05-10T01:45:18;3.00;;;2.17;;
65035;SDS011;51603;49.300;8.880;2023-05-10T01:47:52;3.43;;;2.40;;
65035;SDS011;51603;49.300;8.880;2023-05-10T01:50:24;3.87;;;2.57;;
65035;SDS011;51603;49.300;8.880;2023-05-10T01:52:54;3.03;;;2.80;;
65035;SDS011;51603;49.300;8.880;2023-05-10T01:55:22;2.90;;;2.33;;
65035;SDS011;51603;49.300;8.880;2023-05-10T01:57:53;3.07;;;2.77;;
65035;SDS011;51603;49.300;8.880;2023-05-10T02:00:25;3.20;;;2.90;;
65035;SDS011;51603;49.300;8.880;2023-05-10T02:02:52;2.97;;;2.50;;
65035;SDS011;51603;49.300;8.880;2023-05-10T02:05:19;2.97;;;2.67;;
65035;SDS011;51603;49.300;8.880;2023-05-10T02:07:46;3.10;;;2.90;;
65035;SDS011;51603;49.300;8.880;2023-05-10T02:10:13;3.20;;;2.47;;
65035;SDS011;51603;49.300;8.880;2023-05-10T02:12:43;2.70;;;2.40;;
65035;SDS011;51603;49.300;8.880;2023-05-10T02:15:12;3.20;;;2.53;;
65035;SDS011;51603;49.300;8.880;2023-05-10T02:17:43;2.70;;;2.50;;
65035;SDS011;51603;49.300;8.880;2023-05-10T02:20:11;3.00;;;2.80;;
65035;SDS011;51603;49.300;8.880;2023-05-10T02:22:38;3.27;;;2.97;;
65035;SDS011;51603;49.300;8.880;2023-05-10T02:25:04;3.10;;;2.80;;
65035;SDS011;51603;49.300;8.880;2023-05-10T02:27:31;4.97;;;3.63;;
65035;SDS011;51603;49.300;8.880;2023-05-10T02:29:58;7.13;;;3.67;;
65035;SDS011;51603;49.300;8.880;2023-05-10T02:32:25;3.17;;;2.87;;
65035;SDS011;51603;49.300;8.880;2023-05-10T02:34:52;3.77;;;3.47;;
65035;SDS011;51603;49.300;8.880;2023-05-10T02:37:21;6.10;;;3.80;;
65035;SDS011;51603;49.300;8.880;2023-05-10T02:39:50;3.90;;;3.60;;
65035;SDS011;51603;49.300;8.880;2023-05-10T02:42:19;4.43;;;4.03;;
65035;SDS011;51603;49.300;8.880;2023-05-10T02:44:49;5.07;;;4.70;;
65035;SDS011;51603;49.300;8.880;2023-05-10T02:47:17;7.77;;;7.17;;
65035;SDS011;51603;49.300;8.880;2023-05-10T02:49:43;11.50;;;7.57;;
65035;SDS011;51603;49.300;8.880;2023-05-10T02:52:09;9.80;;;9.00;;
65035;SDS011;51603;49.300;8.880;2023-05-10T02:54:48;9.90;;;9.10;;
65035;SDS011;51603;49.300;8.880;2023-05-10T02:57:16;9.47;;;8.70;;
65035;SDS011;51603;49.300;8.880;2023-05-10T02:59:44;11.07;;;10.17;;
65035;SDS011;51603;49.300;8.880;2023-05-10T03:02:10;8.07;;;7.37;;
65035;SDS011;51603;49.300;8.880;2023-05-10T03:04:37;8.10;;;7.40;;
65035;SDS011;51603;49.300;8.880;2023-05-10T03:07:03;10.57;;;9.80;;
65035;SDS011;51603;49.300;8.880;2023-05-10T03:09:29;9.50;;;8.70;;
65035;SDS011;51603;49.300;8.880;2023-05-10T03:11:56;9.60;;;8.90;;
65035;SDS011;51603;49.300;8.880;2023-05-10T03:17:52;10.30;;;9.37;;
65035;SDS011;51603;49.300;8.880;2023-05-10T03:20:25;8.80;;;8.20;;
65035;SDS011;51603;49.300;8.880;2023-05-10T03:23:04;11.67;;;10.77;;
65035;SDS011;51603;49.300;8.880;2023-05-10T03:25:34;10.33;;;9.57;;
65035;SDS011;51603;49.300;8.880;2023-05-10T03:28:00;10.20;;;9.50;;
65035;SDS011;51603;49.300;8.880;2023-05-10T03:30:27;10.13;;;9.40;;
65035;SDS011;51603;49.300;8.880;2023-05-10T03:32:54;10.00;;;9.20;;
65035;SDS011;51603;49.300;8.880;2023-05-10T03:35:19;8.90;;;8.30;;
65035;SDS011;51603;49.300;8.880;2023-05-10T03:37:45;8.40;;;7.70;;
65035;SDS011;51603;49.300;8.880;2023-05-10T03:40:11;8.53;;;7.97;;
65035;SDS011;51603;49.300;8.880;2023-05-10T03:42:37;10.13;;;8.77;;
65035;SDS011;51603;49.300;8.880;2023-05-10T03:45:03;11.33;;;10.43;;
65035;SDS011;51603;49.300;8.880;2023-05-10T03:47:28;9.93;;;9.13;;
65035;SDS011;51603;49.300;8.880;2023-05-10T03:49:54;10.50;;;9.70;;
65035;SDS011;51603;49.300;8.880;2023-05-10T03:52:20;11.43;;;10.63;;
65035;SDS011;51603;49.300;8.880;2023-05-10T03:54:46;10.67;;;9.70;;
65035;SDS011;51603;49.300;8.880;2023-05-10T03:57:11;10.07;;;9.33;;
65035;SDS011;51603;49.300;8.880;2023-05-10T03:59:37;9.87;;;9.07;;
65035;SDS011;51603;49.300;8.880;2023-05-10T04:02:02;9.90;;;8.90;;
65035;SDS011;51603;49.300;8.880;2023-05-10T04:04:28;10.47;;;9.47;;
65035;SDS011;51603;49.300;8.880;2023-05-10T04:06:53;10.57;;;9.70;;
65035;SDS011;51603;49.300;8.880;2023-05-10T04:09:19;10.33;;;9.17;;
65035;SDS011;51603;49.300;8.880;2023-05-10T04:11:45;8.80;;;8.03;;
65035;SDS011;51603;49.300;8.880;2023-05-10T04:14:10;8.13;;;7.43;;
65035;SDS011;51603;49.300;8.880;2023-05-10T04:16:36;7.80;;;7.10;;
65035;SDS011;51603;49.300;8.880;2023-05-10T04:19:01;7.50;;;6.90;;
65035;SDS011;51603;49.300;8.880;2023-05-10T04:21:27;7.63;;;5.67;;
65035;SDS011;51603;49.300;8.880;2023-05-10T04:23:53;7.53;;;6.93;;
65035;SDS011;51603;49.300;8.880;2023-05-10T04:26:19;7.10;;;6.60;;
65035;SDS011;51603;49.300;8.880;2023-05-10T04:28:45;7.23;;;6.63;;
65035;SDS011;51603;49.300;8.880;2023-05-10T04:31:10;7.00;;;6.40;;
65035;SDS011;51603;49.300;8.880;2023-05-10T04:33:36;7.97;;;7.33;;
65035;SDS011;51603;49.300;8.880;2023-05-10T04:36:02;7.10;;;6.50;;
65035;SDS011;51603;49.300;8.880;2023-05-10T04:38:28;7.50;;;6.90;;
65035;SDS011;51603;49.300;8.880;2023-05-10T04:40:54;8.53;;;7.73;;
65035;SDS011;51603;49.300;8.880;2023-05-10T04:43:32;8.97;;;8.17;;
65035;SDS011;51603;49.300;8.880;2023-05-10T04:45:57;7.53;;;6.93;;
65035;SDS011;51603;49.300;8.880;2023-05-10T04:48:23;7.43;;;6.73;;
65035;SDS011;51603;49.300;8.880;2023-05-10T04:50:48;9.50;;;8.70;;
65035;SDS011;51603;49.300;8.880;2023-05-10T04:53:14;9.07;;;8.27;;
65035;SDS011;51603;49.300;8.880;2023-05-10T04:55:39;8.83;;;8.13;;
65035;SDS011;51603;49.300;8.880;2023-05-10T04:58:05;9.93;;;9.03;;
65035;SDS011;51603;49.300;8.880;2023-05-10T05:00:31;10.47;;;9.67;;
65035;SDS011;51603;49.300;8.880;2023-05-10T05:02:57;10.17;;;8.97;;
65035;SDS011;51603;49.300;8.880;2023-05-10T05:05:23;14.40;;;9.70;;
65035;SDS011;51603;49.300;8.880;2023-05-10T05:07:48;10.73;;;9.83;;
65035;SDS011;51603;49.300;8.880;2023-05-10T05:10:14;10.17;;;9.20;;
65035;SDS011;51603;49.300;8.880;2023-05-10T05:12:39;9.47;;;8.67;;
65035;SDS011;51603;49.300;8.880;2023-05-10T05:15:05;9.73;;;8.57;;
65035;SDS011;51603;49.300;8.880;2023-05-10T05:17:33;10.40;;;9.50;;
65035;SDS011;51603;49.300;8.880;2023-05-10T05:19:58;9.73;;;8.80;;
65035;SDS011;51603;49.300;8.880;2023-05-10T05:22:24;10.23;;;9.23;;
65035;SDS011;51603;49.300;8.880;2023-05-10T05:24:53;10.20;;;9.40;;
65035;SDS011;51603;49.300;8.880;2023-05-10T05:27:19;10.53;;;9.63;;
65035;SDS011;51603;49.300;8.880;2023-05-10T05:29:47;10.10;;;9.20;;
65035;SDS011;51603;49.300;8.880;2023-05-10T05:32:12;9.93;;;9.20;;
65035;SDS011;51603;49.300;8.880;2023-05-10T05:34:38;11.20;;;9.93;;
65035;SDS011;51603;49.300;8.880;2023-05-10T05:37:04;11.43;;;10.43;;
65035;SDS011;51603;49.300;8.880;2023-05-10T05:39:29;10.47;;;9.57;;
65035;SDS011;51603;49.300;8.880;2023-05-10T05:41:55;11.00;;;10.10;;
65035;SDS011;51603;49.300;8.880;2023-05-10T05:44:20;9.60;;;8.80;;
65035;SDS011;51603;49.300;8.880;2023-05-10T05:46:46;9.63;;;8.73;;
65035;SDS011;51603;49.300;8.880;2023-05-10T05:49:11;9.40;;;8.63;;
65035;SDS011;51603;49.300;8.880;2023-05-10T05:51:37;9.30;;;8.50;;
65035;SDS011;51603;49.300;8.880;2023-05-10T05:54:02;9.10;;;8.40;;
65035;SDS011;51603;49.300;8.880;2023-05-10T05:56:29;10.50;;;9.60;;
65035;SDS011;51603;49.300;8.880;2023-05-10T05:58:55;8.17;;;7.50;;
65035;SDS011;51603;49.300;8.880;2023-05-10T06:01:20;8.30;;;7.70;;
65035;SDS011;51603;49.300;8.880;2023-05-10T06:03:46;10.27;;;8.50;;
65035;SDS011;51603;49.300;8.880;2023-05-10T06:06:11;11.17;;;7.83;;
65035;SDS011;51603;49.300;8.880;2023-05-10T06:08:37;10.00;;;9.20;;
65035;SDS011;51603;49.300;8.880;2023-05-10T06:11:03;8.83;;;8.10;;
65035;SDS011;51603;49.300;8.880;2023-05-10T06:13:29;9.50;;;8.70;;
65035;SDS011;51603;49.300;8.880;2023-05-10T06:15:57;9.13;;;8.43;;
65035;SDS011;51603;49.300;8.880;2023-05-10T06:18:23;9.53;;;8.83;;
65035;SDS011;51603;49.300;8.880;2023-05-10T06:20:49;10.60;;;8.87;;
65035;SDS011;51603;49.300;8.880;2023-05-10T06:23:15;10.07;;;9.33;;
65035;SDS011;51603;49.300;8.880;2023-05-10T06:25:40;10.00;;;9.03;;
65035;SDS011;51603;49.300;8.880;2023-05-10T06:28:06;9.80;;;8.80;;
65035;SDS011;51603;49.300;8.880;2023-05-10T06:30:31;10.17;;;7.90;;
65035;SDS011;51603;49.300;8.880;2023-05-10T06:32:57;9.17;;;7.47;;
65035;SDS011;51603;49.300;8.880;2023-05-10T06:35:22;6.97;;;6.47;;
65035;SDS011;51603;49.300;8.880;2023-05-10T06:37:48;8.47;;;7.77;;
65035;SDS011;51603;49.300;8.880;2023-05-10T06:40:14;8.40;;;7.70;;
65035;SDS011;51603;49.300;8.880;2023-05-10T06:42:40;7.83;;;7.23;;
65035;SDS011;51603;49.300;8.880;2023-05-10T06:45:06;7.77;;;7.17;;
65035;SDS011;51603;49.300;8.880;2023-05-10T06:47:33;7.20;;;6.60;;
65035;SDS011;51603;49.300;8.880;2023-05-10T06:49:59;12.23;;;6.70;;
65035;SDS011;51603;49.300;8.880;2023-05-10T06:52:24;7.37;;;6.80;;
65035;SDS011;51603;49.300;8.880;2023-05-10T06:54:50;7.60;;;7.00;;
65035;SDS011;51603;49.300;8.880;2023-05-10T06:57:15;7.80;;;7.10;;
65035;SDS011;51603;49.300;8.880;2023-05-10T06:59:41;8.47;;;7.83;;
65035;SDS011;51603;49.300;8.880;2023-05-10T07:02:06;11.90;;;7.47;;
65035;SDS011;51603;49.300;8.880;2023-05-10T07:04:32;6.90;;;6.30;;
65035;SDS011;51603;49.300;8.880;2023-05-10T07:06:57;6.70;;;6.10;;
65035;SDS011;51603;49.300;8.880;2023-05-10T07:09:23;6.47;;;5.90;;
65035;SDS011;51603;49.300;8.880;2023-05-10T07:11:49;5.67;;;5.20;;
65035;SDS011;51603;49.300;8.880;2023-05-10T07:14:15;6.00;;;5.37;;
65035;SDS011;51603;49.300;8.880;2023-05-10T07:16:40;6.23;;;5.70;;
65035;SDS011;51603;49.300;8.880;2023-05-10T07:19:06;7.10;;;5.97;;
65035;SDS011;51603;49.300;8.880;2023-05-10T07:21:32;5.40;;;5.00;;
65035;SDS011;51603;49.300;8.880;2023-05-10T07:23:57;6.37;;;5.87;;
65035;SDS011;51603;49.300;8.880;2023-05-10T07:26:23;9.37;;;6.00;;
65035;SDS011;51603;49.300;8.880;2023-05-10T07:28:49;5.30;;;4.80;;
65035;SDS011;51603;49.300;8.880;2023-05-10T07:31:14;7.47;;;5.50;;
65035;SDS011;51603;49.300;8.880;2023-05-10T07:33:40;7.23;;;6.73;;
65035;SDS011;51603;49.300;8.880;2023-05-10T07:36:06;6.03;;;5.10;;
65035;SDS011;51603;49.300;8.880;2023-05-10T07:38:31;6.63;;;6.00;;
65035;SDS011;51603;49.300;8.880;2023-05-10T07:40:57;7.10;;;6.60;;
65035;SDS011;51603;49.300;8.880;2023-05-10T07:43:22;7.07;;;5.73;;
65035;SDS011;51603;49.300;8.880;2023-05-10T07:45:48;7.07;;;6.37;;
65035;SDS011;51603;49.300;8.880;2023-05-10T07:48:13;5.87;;;5.47;;
65035;SDS011;51603;49.300;8.880;2023-05-10T07:50:39;5.70;;;5.30;;
65035;SDS011;51603;49.300;8.880;2023-05-10T07:53:05;5.27;;;4.77;;
65035;SDS011;51603;49.300;8.880;2023-05-10T07:55:30;4.47;;;4.07;;
65035;SDS011;51603;49.300;8.880;2023-05-10T07:57:56;4.20;;;3.90;;
65035;SDS011;51603;49.300;8.880;2023-05-10T08:00:21;4.70;;;4.40;;
65035;SDS011;51603;49.300;8.880;2023-05-10T08:02:47;9.23;;;3.80;;
65035;SDS011;51603;49.300;8.880;2023-05-10T08:05:12;4.30;;;3.90;;
65035;SDS011;51603;49.300;8.880;2023-05-10T08:07:38;5.00;;;4.03;;
65035;SDS011;51603;49.300;8.880;2023-05-10T08:10:04;4.07;;;3.77;;
65035;SDS011;51603;49.300;8.880;2023-05-10T08:12:30;3.70;;;3.40;;
65035;SDS011;51603;49.300;8.880;2023-05-10T08:14:56;4.40;;;4.03;;
65035;SDS011;51603;49.300;8.880;2023-05-10T08:17:22;3.67;;;3.37;;
65035;SDS011;51603;49.300;8.880;2023-05-10T08:19:47;4.13;;;3.60;;
65035;SDS011;51603;49.300;8.880;2023-05-10T08:22:13;3.63;;;3.30;;
65035;SDS011;51603;49.300;8.880;2023-05-10T08:24:38;3.07;;;2.77;;
65035;SDS011;51603;49.300;8.880;2023-05-10T08:27:04;3.77;;;3.30;;
65035;SDS011;51603;49.300;8.880;2023-05-10T08:29:30;3.93;;;3.63;;
65035;SDS011;51603;49.300;8.880;2023-05-10T08:31:56;3.20;;;3.00;;
65035;SDS011;51603;49.300;8.880;2023-05-10T08:34:21;3.47;;;3.17;;
65035;SDS011;51603;49.300;8.880;2023-05-10T08:36:47;3.23;;;2.93;;
65035;SDS011;51603;49.300;8.880;2023-05-10T08:39:12;4.30;;;3.60;;
65035;SDS011;51603;49.300;8.880;2023-05-10T08:41:38;3.40;;;3.10;;
65035;SDS011;51603;49.300;8.880;2023-05-10T08:44:05;4.23;;;3.80;;
65035;SDS011;51603;49.300;8.880;2023-05-10T08:46:33;6.47;;;3.87;;
65035;SDS011;51603;49.300;8.880;2023-05-10T08:49:03;2.53;;;2.30;;
65035;SDS011;51603;49.300;8.880;2023-05-10T08:51:30;2.70;;;2.50;;
65035;SDS011;51603;49.300;8.880;2023-05-10T08:54:01;2.63;;;2.43;;
65035;SDS011;51603;49.300;8.880;2023-05-10T08:56:27;2.47;;;2.20;;
65035;SDS011;51603;49.300;8.880;2023-05-10T08:58:53;3.73;;;2.40;;
65035;SDS011;51603;49.300;8.880;2023-05-10T09:01:20;3.50;;;2.30;;
65035;SDS011;51603;49.300;8.880;2023-05-10T09:03:46;2.50;;;2.30;;
65035;SDS011;51603;49.300;8.880;2023-05-10T09:06:13;2.90;;;2.13;;
65035;SDS011;51603;49.300;8.880;2023-05-10T09:08:40;3.90;;;2.00;;
65035;SDS011;51603;49.300;8.880;2023-05-10T09:11:07;2.50;;;2.30;;
65035;SDS011;51603;49.300;8.880;2023-05-10T09:13:35;2.03;;;1.83;;
65035;SDS011;51603;49.300;8.880;2023-05-10T09:16:01;3.87;;;1.90;;
65035;SDS011;51603;49.300;8.880;2023-05-10T09:18:28;2.60;;;1.80;;
65035;SDS011;51603;49.300;8.880;2023-05-10T09:20:54;1.93;;;1.50;;
65035;SDS011;51603;49.300;8.880;2023-05-10T09:23:20;2.97;;;1.80;;
65035;SDS011;51603;49.300;8.880;2023-05-10T09:25:45;2.00;;;1.80;;
65035;SDS011;51603;49.300;8.880;2023-05-10T09:28:11;2.07;;;1.93;;
65035;SDS011;51603;49.300;8.880;2023-05-10T09:30:37;1.87;;;1.60;;
65035;SDS011;51603;49.300;8.880;2023-05-10T09:33:03;2.50;;;1.80;;
65035;SDS011;51603;49.300;8.880;2023-05-10T09:35:30;1.70;;;1.60;;
65035;SDS011;51603;49.300;8.880;2023-05-10T09:38:00;2.47;;;1.50;;
65035;SDS011;51603;49.300;8.880;2023-05-10T09:40:28;1.50;;;1.33;;
65035;SDS011;51603;49.300;8.880;2023-05-10T09:42:55;1.40;;;1.27;;
65035;SDS011;51603;49.300;8.880;2023-05-10T09:45:33;2.73;;;1.50;;
65035;SDS011;51603;49.300;8.880;2023-05-10T09:48:00;1.63;;;1.30;;
65035;SDS011;51603;49.300;8.880;2023-05-10T09:50:27;1.43;;;1.10;;
65035;SDS011;51603;49.300;8.880;2023-05-10T09:52:57;1.63;;;1.03;;
65035;SDS011;51603;49.300;8.880;2023-05-10T09:55:46;2.27;;;1.40;;
65035;SDS011;51603;49.300;8.880;2023-05-10T09:58:12;1.40;;;1.30;;
65035;SDS011;51603;49.300;8.880;2023-05-10T10:00:39;3.30;;;1.17;;
65035;SDS011;51603;49.300;8.880;2023-05-10T10:03:06;1.13;;;0.90;;
65035;SDS011;51603;49.300;8.880;2023-05-10T10:05:39;1.60;;;1.10;;
65035;SDS011;51603;49.300;8.880;2023-05-10T10:08:06;1.20;;;0.90;;
65035;SDS011;51603;49.300;8.880;2023-05-10T10:10:32;1.20;;;0.90;;
65035;SDS011;51603;49.300;8.880;2023-05-10T10:12:58;1.83;;;1.13;;
65035;SDS011;51603;49.300;8.880;2023-05-10T10:15:24;1.87;;;0.90;;
65035;SDS011;51603;49.300;8.880;2023-05-10T10:17:51;2.37;;;1.33;;
65035;SDS011;51603;49.300;8.880;2023-05-10T10:20:17;5.33;;;1.77;;
65035;SDS011;51603;49.300;8.880;2023-05-10T10:22:44;1.23;;;1.00;;
65035;SDS011;51603;49.300;8.880;2023-05-10T10:25:11;1.13;;;0.93;;
65035;SDS011;51603;49.300;8.880;2023-05-10T10:35:31;1.50;;;1.17;;
65035;SDS011;51603;49.300;8.880;2023-05-10T10:37:57;2.17;;;1.40;;
65035;SDS011;51603;49.300;8.880;2023-05-10T10:40:27;1.43;;;1.33;;
65035;SDS011;51603;49.300;8.880;2023-05-10T10:42:54;1.80;;;1.43;;
65035;SDS011;51603;49.300;8.880;2023-05-10T10:45:21;1.77;;;1.57;;
65035;SDS011;51603;49.300;8.880;2023-05-10T10:47:47;1.60;;;1.50;;
65035;SDS011;51603;49.300;8.880;2023-05-10T10:50:13;2.37;;;1.30;;
65035;SDS011;51603;49.300;8.880;2023-05-10T10:52:41;2.43;;;1.90;;
65035;SDS011;51603;49.300;8.880;2023-05-10T11:05:24;1.90;;;1.07;;
65035;SDS011;51603;49.300;8.880;2023-05-10T11:07:54;2.03;;;1.87;;
65035;SDS011;51603;49.300;8.880;2023-05-10T11:10:21;1.73;;;1.63;;
65035;SDS011;51603;49.300;8.880;2023-05-10T11:12:51;2.30;;;1.40;;
65035;SDS011;51603;49.300;8.880;2023-05-10T11:15:19;1.80;;;1.27;;
65035;SDS011;51603;49.300;8.880;2023-05-10T11:17:45;1.27;;;1.17;;
65035;SDS011;51603;49.300;8.880;2023-05-10T11:20:16;1.67;;;1.33;;
65035;SDS011;51603;49.300;8.880;2023-05-10T11:22:54;2.90;;;1.33;;
65035;SDS011;51603;49.300;8.880;2023-05-10T11:25:26;1.77;;;1.43;;
65035;SDS011;51603;49.300;8.880;2023-05-10T11:27:53;2.20;;;1.00;;
65035;SDS011;51603;49.300;8.880;2023-05-10T11:30:18;2.40;;;1.33;;
65035;SDS011;51603;49.300;8.880;2023-05-10T11:32:45;2.40;;;0.93;;
65035;SDS011;51603;49.300;8.880;2023-05-10T11:35:11;2.50;;;1.27;;
65035;SDS011;51603;49.300;8.880;2023-05-10T11:37:38;1.67;;;1.53;;
65035;SDS011;51603;49.300;8.880;2023-05-10T11:40:08;2.83;;;1.10;;
65035;SDS011;51603;49.300;8.880;2023-05-10T11:42:36;2.27;;;1.47;;
65035;SDS011;51603;49.300;8.880;2023-05-10T11:45:02;3.27;;;1.30;;
65035;SDS011;51603;49.300;8.880;2023-05-10T11:47:28;2.00;;;1.30;;
65035;SDS011;51603;49.300;8.880;2023-05-10T11:49:54;1.57;;;1.00;;
65035;SDS011;51603;49.300;8.880;2023-05-10T11:52:19;2.10;;;1.73;;
65035;SDS011;51603;49.300;8.880;2023-05-10T11:54:50;2.33;;;1.57;;
65035;SDS011;51603;49.300;8.880;2023-05-10T11:57:18;2.97;;;1.50;;
65035;SDS011;51603;49.300;8.880;2023-05-10T11:59:46;3.33;;;1.60;;
65035;SDS011;51603;49.300;8.880;2023-05-10T12:02:15;2.70;;;1.40;;
65035;SDS011;51603;49.300;8.880;2023-05-10T12:04:41;2.07;;;1.80;;
65035;SDS011;51603;49.300;8.880;2023-05-10T12:07:06;2.00;;;1.40;;
65035;SDS011;51603;49.300;8.880;2023-05-10T12:09:32;2.63;;;1.27;;
65035;SDS011;51603;49.300;8.880;2023-05-10T12:11:57;1.73;;;1.40;;
65035;SDS011;51603;49.300;8.880;2023-05-10T12:14:23;4.63;;;1.50;;
65035;SDS011;51603;49.300;8.880;2023-05-10T12:16:49;2.40;;;1.60;;
65035;SDS011;51603;49.300;8.880;2023-05-10T12:19:18;2.23;;;1.43;;
65035;SDS011;51603;49.300;8.880;2023-05-10T12:21:45;2.57;;;1.40;;
65035;SDS011;51603;49.300;8.880;2023-05-10T12:24:10;3.50;;;1.27;;
65035;SDS011;51603;49.300;8.880;2023-05-10T12:26:37;1.80;;;1.03;;
65035;SDS011;51603;49.300;8.880;2023-05-10T12:29:16;4.20;;;1.20;;
65035;SDS011;51603;49.300;8.880;2023-05-10T12:31:55;2.07;;;1.00;;
65035;SDS011;51603;49.300;8.880;2023-05-10T12:36:56;1.70;;;0.87;;
65035;SDS011;51603;49.300;8.880;2023-05-10T12:39:22;4.57;;;1.27;;
65035;SDS011;51603;49.300;8.880;2023-05-10T12:41:48;4.00;;;1.10;;
65035;SDS011;51603;49.300;8.880;2023-05-10T12:44:14;2.90;;;1.23;;
65035;SDS011;51603;49.300;8.880;2023-05-10T12:46:40;2.20;;;0.80;;
65035;SDS011;51603;49.300;8.880;2023-05-10T12:49:05;2.70;;;0.90;;
65035;SDS011;51603;49.300;8.880;2023-05-10T12:51:31;2.90;;;1.40;;
65035;SDS011;51603;49.300;8.880;2023-05-10T12:53:56;3.43;;;1.40;;
65035;SDS011;51603;49.300;8.880;2023-05-10T12:56:22;3.80;;;1.37;;
65035;SDS011;51603;49.300;8.880;2023-05-10T12:58:47;1.93;;;1.27;;
65035;SDS011;51603;49.300;8.880;2023-05-10T13:01:13;2.40;;;1.13;;
65035;SDS011;51603;49.300;8.880;2023-05-10T13:03:39;3.97;;;1.40;;
65035;SDS011;51603;49.300;8.880;2023-05-10T13:06:05;1.50;;;1.03;;
65035;SDS011;51603;49.300;8.880;2023-05-10T13:08:31;13.67;;;1.70;;
65035;SDS011;51603;49.300;8.880;2023-05-10T13:10:58;2.80;;;1.20;;
65035;SDS011;51603;49.300;8.880;2023-05-10T13:13:25;1.40;;;1.20;;
65035;SDS011;51603;49.300;8.880;2023-05-10T13:15:51;3.00;;;1.20;;
65035;SDS011;51603;49.300;8.880;2023-05-10T13:18:16;2.30;;;1.20;;
65035;SDS011;51603;49.300;8.880;2023-05-10T13:20:42;3.07;;;1.13;;
65035;SDS011;51603;49.300;8.880;2023-05-10T13:23:09;3.07;;;1.10;;
65035;SDS011;51603;49.300;8.880;2023-05-10T13:25:35;1.83;;;1.27;;
65035;SDS011;51603;49.300;8.880;2023-05-10T13:28:01;4.70;;;1.43;;
65035;SDS011;51603;49.300;8.880;2023-05-10T13:30:26;2.93;;;1.53;;
65035;SDS011;51603;49.300;8.880;2023-05-10T13:32:53;2.10;;;1.30;;
65035;SDS011;51603;49.300;8.880;2023-05-10T13:35:19;1.53;;;1.20;;
65035;SDS011;51603;49.300;8.880;2023-05-10T13:37:45;1.73;;;1.13;;
65035;SDS011;51603;49.300;8.880;2023-05-10T13:40:10;3.10;;;1.53;;
65035;SDS011;51603;49.300;8.880;2023-05-10T13:42:36;2.93;;;1.40;;
65035;SDS011;51603;49.300;8.880;2023-05-10T13:45:02;2.13;;;1.27;;
65035;SDS011;51603;49.300;8.880;2023-05-10T13:47:28;3.97;;;1.17;;
65035;SDS011;51603;49.300;8.880;2023-05-10T13:49:53;1.20;;;1.00;;
65035;SDS011;51603;49.300;8.880;2023-05-10T13:52:19;2.67;;;1.20;;
65035;SDS011;51603;49.300;8.880;2023-05-10T13:54:45;4.23;;;1.40;;
65035;SDS011;51603;49.300;8.880;2023-05-10T13:57:11;4.87;;;1.20;;
65035;SDS011;51603;49.300;8.880;2023-05-10T13:59:38;3.20;;;1.00;;
65035;SDS011;51603;49.300;8.880;2023-05-10T14:02:04;2.77;;;1.57;;
65035;SDS011;51603;49.300;8.880;2023-05-10T14:04:31;1.23;;;1.07;;
65035;SDS011;51603;49.300;8.880;2023-05-10T14:06:56;2.50;;;1.40;;
65035;SDS011;51603;49.300;8.880;2023-05-10T14:09:22;1.23;;;1.00;;
65035;SDS011;51603;49.300;8.880;2023-05-10T14:11:48;4.27;;;1.43;;
65035;SDS011;51603;49.300;8.880;2023-05-10T14:14:13;2.43;;;1.57;;
65035;SDS011;51603;49.300;8.880;2023-05-10T14:16:41;2.40;;;1.40;;
65035;SDS011;51603;49.300;8.880;2023-05-10T14:19:08;2.00;;;1.80;;
65035;SDS011;51603;49.300;8.880;2023-05-10T14:21:34;1.60;;;1.47;;
65035;SDS011;51603;49.300;8.880;2023-05-10T14:23:59;2.07;;;1.10;;
65035;SDS011;51603;49.300;8.880;2023-05-10T14:26:25;3.70;;;2.50;;
65035;SDS011;51603;49.300;8.880;2023-05-10T14:28:51;1.87;;;1.33;;
65035;SDS011;51603;49.300;8.880;2023-05-10T14:31:17;2.50;;;1.23;;
65035;SDS011;51603;49.300;8.880;2023-05-10T14:33:45;2.37;;;0.97;;
65035;SDS011;51603;49.300;8.880;2023-05-10T14:36:11;2.47;;;1.00;;
65035;SDS011;51603;49.300;8.880;2023-05-10T14:38:36;2.03;;;1.10;;
65035;SDS011;51603;49.300;8.880;2023-05-10T14:41:02;1.37;;;1.00;;
65035;SDS011;51603;49.300;8.880;2023-05-10T14:43:28;3.33;;;1.03;;
65035;SDS011;51603;49.300;8.880;2023-05-10T14:45:53;1.23;;;0.70;;
65035;SDS011;51603;49.300;8.880;2023-05-10T14:48:19;3.17;;;1.20;;
65035;SDS011;51603;49.300;8.880;2023-05-10T14:50:46;1.90;;;0.90;;
65035;SDS011;51603;49.300;8.880;2023-05-10T14:53:11;1.90;;;0.93;;
65035;SDS011;51603;49.300;8.880;2023-05-10T14:55:37;1.47;;;0.80;;
65035;SDS011;51603;49.300;8.880;2023-05-10T14:58:04;2.10;;;1.10;;
65035;SDS011;51603;49.300;8.880;2023-05-10T15:00:30;3.63;;;1.20;;
65035;SDS011;51603;49.300;8.880;2023-05-10T15:02:56;2.90;;;1.00;;
65035;SDS011;51603;49.300;8.880;2023-05-10T15:05:22;1.80;;;0.97;;
65035;SDS011;51603;49.300;8.880;2023-05-10T15:07:48;2.67;;;1.23;;
65035;SDS011;51603;49.300;8.880;2023-05-10T15:10:14;3.17;;;1.43;;
65035;SDS011;51603;49.300;8.880;2023-05-10T15:12:40;1.60;;;0.90;;